Time;durP1;ratioP1;P1;durP2;ratioP2;P2;SDS_P1;SDS_P2;PMS_P1;PMS_P2;Temp;Humidity;BMP_temperature;BMP_pressure;BME280_temperature;BME280_humidity;BME280_pressure;Samples;Min_cycle;Max_cycle;Signal;HPM_P1;HPM_P2
2022/08/16 00:00:21;;;;;;;4.97;3.17;;;;;;;19.91;100.00;97353.80;1714966;82;28096;-87
2022/08/16 00:02:50;;;;;;;4.58;3.60;;;;;;;19.84;100.00;97356.91;1652623;85;28100;-90
2022/08/16 00:05:16;;;;;;;6.03;3.22;;;;;;;19.76;100.00;97359.67;1646607;85;28096;-89
2022/08/16 00:07:43;;;;;;;4.58;3.85;;;;;;;19.62;100.00;97363.56;1647502;85;28070;-88
2022/08/16 00:10:12;;;;;;;3.95;3.30;;;;;;;19.47;100.00;97356.17;1658013;84;28086;-89
2022/08/16 00:12:41;;;;;;;4.22;3.58;;;;;;;19.49;100.00;97355.95;1657068;84;28083;-89
2022/08/16 00:15:14;;;;;;;4.60;3.60;;;;;;;19.52;100.00;97361.73;1674777;83;28141;-89
2022/08/16 00:17:40;;;;;;;5.30;3.40;;;;;;;19.50;100.00;97357.61;1668406;84;28186;-89
2022/08/16 00:20:08;;;;;;;4.80;3.47;;;;;;;19.54;100.00;97365.50;1719658;81;28037;-87
2022/08/16 00:22:38;;;;;;;5.25;3.40;;;;;;;19.61;100.00;97374.36;1718317;81;28205;-87
2022/08/16 00:25:11;;;;;;;4.55;3.35;;;;;;;19.63;100.00;97369.69;1721780;82;28028;-86
2022/08/16 00:27:35;;;;;;;3.98;3.33;;;;;;;19.65;100.00;97357.03;1723266;80;28159;-87
2022/08/16 00:30:04;;;;;;;6.10;3.87;;;;;;;19.68;100.00;97352.69;1729537;81;28123;-89
2022/08/16 00:32:30;;;;;;;5.55;3.77;;;;;;;19.61;100.00;97355.27;1712841;81;28035;-88
2022/08/16 00:34:56;;;;;;;8.35;5.37;;;;;;;19.56;100.00;97364.31;1721668;81;43071;-89
2022/08/16 00:37:25;;;;;;;7.28;4.78;;;;;;;19.53;100.00;97362.02;1728309;81;28093;-89
2022/08/16 00:39:53;;;;;;;7.03;5.20;;;;;;;19.52;100.00;97367.03;1723045;81;28111;-87
2022/08/16 00:42:20;;;;;;;6.62;3.92;;;;;;;19.51;100.00;97361.41;1721066;81;28211;-86
2022/08/16 00:44:52;;;;;;;6.17;3.42;;;;;;;19.49;100.00;97363.92;1717939;81;28016;-86
2022/08/16 00:47:22;;;;;;;3.65;2.92;;;;;;;19.35;100.00;97362.95;1720140;81;28119;-86
2022/08/16 00:49:49;;;;;;;7.22;5.20;;;;;;;19.26;100.00;97364.05;1715058;82;28034;-88
2022/08/16 00:52:16;;;;;;;5.85;4.17;;;;;;;19.24;100.00;97366.09;1724777;82;28201;-87
2022/08/16 00:54:42;;;;;;;7.67;5.35;;;;;;;19.27;100.00;97371.01;1726985;81;28179;-86
2022/08/16 00:57:23;;;;;;;8.03;3.95;;;;;;;19.28;100.00;97371.83;1738909;81;28140;-89
2022/08/16 00:59:47;;;;;;;5.03;3.77;;;;;;;19.15;100.00;97372.00;1733908;81;28110;-89
2022/08/16 01:02:16;;;;;;;4.55;3.40;;;;;;;19.09;100.00;97370.62;1726191;81;28244;-90
2022/08/16 01:04:42;;;;;;;6.65;5.35;;;;;;;18.99;100.00;97368.23;1695811;83;28047;-89
2022/08/16 01:07:08;;;;;;;5.87;4.30;;;;;;;19.00;100.00;97369.89;1656404;84;28314;-89
2022/08/16 01:09:38;;;;;;;9.50;4.65;;;;;;;19.12;100.00;97372.88;1696188;83;28028;-89
2022/08/16 01:12:09;;;;;;;6.67;4.53;;;;;;;19.17;100.00;97373.97;1726008;81;28105;-87
2022/08/16 01:14:39;;;;;;;6.95;4.62;;;;;;;19.17;100.00;97373.97;1720449;81;28094;-89
2022/08/16 01:17:06;;;;;;;6.37;4.78;;;;;;;19.17;100.00;97377.95;1720289;82;28171;-89
2022/08/16 01:19:36;;;;;;;7.33;4.40;;;;;;;19.22;100.00;97385.34;1717014;81;28085;-88
2022/08/16 01:22:08;;;;;;;7.10;4.72;;;;;;;19.32;100.00;97385.03;1725570;81;28111;-88
2022/08/16 01:24:41;;;;;;;8.90;5.55;;;;;;;19.32;100.00;97384.53;1733243;80;28220;-88
2022/08/16 01:27:11;;;;;;;10.15;5.85;;;;;;;19.38;100.00;97384.28;1705381;81;28197;-88
2022/08/16 01:29:40;;;;;;;8.43;4.75;;;;;;;19.43;100.00;97386.69;1708324;81;28005;-88
2022/08/16 01:32:06;;;;;;;11.25;5.12;;;;;;;19.48;100.00;97389.63;1724019;81;28092;-88
2022/08/16 01:34:33;;;;;;;6.65;4.40;;;;;;;19.50;100.00;97388.13;1727437;81;28047;-88
2022/08/16 01:37:05;;;;;;;8.80;4.55;;;;;;;19.49;100.00;97389.95;1724346;82;28128;-89
2022/08/16 01:39:33;;;;;;;7.60;4.10;;;;;;;19.40;100.00;97386.25;1723259;81;28193;-89
2022/08/16 01:42:00;;;;;;;10.15;5.10;;;;;;;19.32;100.00;97386.36;1727794;81;28101;-87
2022/08/16 01:44:27;;;;;;;8.78;4.72;;;;;;;19.31;100.00;97390.05;1725603;81;28089;-88
2022/08/16 01:46:55;;;;;;;6.85;4.20;;;;;;;19.35;100.00;97392.63;1722705;80;28149;-88
2022/08/16 01:49:28;;;;;;;11.95;4.90;;;;;;;19.30;100.00;97393.70;1723948;80;27999;-87
2022/08/16 01:51:58;;;;;;;6.42;4.28;;;;;;;19.14;100.00;97389.45;1726487;81;28140;-86
2022/08/16 01:54:25;;;;;;;4.75;3.83;;;;;;;18.98;100.00;97381.70;1700866;82;28210;-87
2022/08/16 01:56:51;;;;;;;4.97;3.60;;;;;;;18.82;100.00;97393.84;1732312;82;28205;-86
2022/08/16 01:59:19;;;;;;;6.50;4.50;;;;;;;18.80;100.00;97397.48;1714815;82;28146;-89
2022/08/16 02:01:46;;;;;;;8.15;4.45;;;;;;;18.87;100.00;97390.95;1708707;81;28123;-88
2022/08/16 02:04:13;;;;;;;6.53;4.50;;;;;;;18.96;100.00;97395.64;1719313;81;28103;-88
2022/08/16 02:06:40;;;;;;;7.22;4.83;;;;;;;18.91;100.00;97392.72;1724914;80;28196;-87
2022/08/16 02:09:08;;;;;;;9.18;4.55;;;;;;;18.95;100.00;97396.14;1725028;82;28123;-89
2022/08/16 02:11:35;;;;;;;7.08;4.42;;;;;;;19.02;100.00;97398.38;1729701;80;28054;-89
2022/08/16 02:14:07;;;;;;;7.08;4.28;;;;;;;19.06;100.00;97394.84;1708802;80;28200;-89
2022/08/16 02:16:33;;;;;;;8.68;4.72;;;;;;;19.11;100.00;97387.97;1733660;81;28195;-88
2022/08/16 02:18:59;;;;;;;8.38;4.75;;;;;;;19.13;100.00;97390.45;1718511;81;28186;-87
2022/08/16 02:21:27;;;;;;;8.45;4.70;;;;;;;19.00;100.00;97392.42;1720681;80;28174;-87
2022/08/16 02:23:53;;;;;;;5.92;4.30;;;;;;;18.79;100.00;97395.02;1724626;81;28015;-89
2022/08/16 02:26:25;;;;;;;6.12;4.03;;;;;;;18.64;100.00;97391.55;1721912;80;28156;-89
2022/08/16 02:28:51;;;;;;;10.30;4.50;;;;;;;18.56;100.00;97388.98;1728234;81;28088;-89
2022/08/16 02:31:18;;;;;;;7.85;4.55;;;;;;;18.50;100.00;97394.47;1724896;81;28113;-89
2022/08/16 02:33:45;;;;;;;8.73;4.37;;;;;;;18.40;100.00;97393.92;1721472;81;28090;-88
2022/08/16 02:36:12;;;;;;;7.47;5.05;;;;;;;18.31;100.00;97393.70;1724694;81;28208;-86
2022/08/16 02:38:39;;;;;;;5.67;4.70;;;;;;;18.31;100.00;97387.07;1726484;81;28345;-89
2022/08/16 02:41:07;;;;;;;6.78;4.87;;;;;;;18.37;100.00;97383.20;1729759;80;28078;-89
2022/08/16 02:43:35;;;;;;;9.73;4.97;;;;;;;18.52;100.00;97379.72;1716171;81;28046;-86
2022/08/16 02:46:06;;;;;;;8.45;5.33;;;;;;;18.67;100.00;97383.22;1668234;82;28105;-86
2022/08/16 02:48:32;;;;;;;8.93;5.22;;;;;;;18.80;100.00;97376.28;1680513;82;28125;-87
2022/08/16 02:51:01;;;;;;;7.92;5.05;;;;;;;18.90;100.00;97377.31;1680889;83;28294;-88
2022/08/16 02:53:27;;;;;;;8.38;5.40;;;;;;;18.95;100.00;97370.95;1662819;84;28183;-88
2022/08/16 02:55:59;;;;;;;9.03;5.42;;;;;;;19.00;100.00;97377.02;1672842;83;28092;-88
2022/08/16 02:58:25;;;;;;;8.60;5.60;;;;;;;19.00;100.00;97376.52;1687189;82;28190;-89
2022/08/16 03:00:56;;;;;;;10.23;5.70;;;;;;;19.00;100.00;97372.53;1682896;82;28067;-89
2022/08/16 03:03:23;;;;;;;7.58;5.45;;;;;;;19.02;100.00;97372.36;1719232;81;28101;-89
2022/08/16 03:05:50;;;;;;;7.22;5.47;;;;;;;19.02;100.00;97378.49;1723028;80;28136;-88
2022/08/16 03:08:17;;;;;;;9.55;5.12;;;;;;;18.99;100.00;97376.69;1720377;81;28240;-88
2022/08/16 03:10:44;;;;;;;7.40;5.53;;;;;;;18.95;100.00;97373.60;1717607;82;28255;-88
2022/08/16 03:13:11;;;;;;;8.30;5.28;;;;;;;18.93;100.00;97374.81;1731808;81;28013;-88
2022/08/16 03:15:37;;;;;;;8.08;5.33;;;;;;;18.90;100.00;97381.79;1732275;82;28111;-86
2022/08/16 03:18:07;;;;;;;9.78;5.55;;;;;;;18.88;100.00;97376.66;1720059;81;28081;-87
2022/08/16 03:20:33;;;;;;;7.47;4.78;;;;;;;18.87;100.00;97379.02;1721321;82;28120;-87
2022/08/16 03:22:59;;;;;;;6.35;5.20;;;;;;;18.85;100.00;97382.34;1720451;80;28121;-88
2022/08/16 03:25:26;;;;;;;6.87;4.85;;;;;;;18.82;100.00;97381.91;1729318;81;28009;-88
2022/08/16 03:27:52;;;;;;;7.20;5.30;;;;;;;18.80;100.00;97384.23;1730164;81;28013;-86
2022/08/16 03:30:25;;;;;;;6.37;5.45;;;;;;;18.77;100.00;97387.73;1732238;81;28262;-86
2022/08/16 03:32:51;;;;;;;7.87;5.65;;;;;;;18.72;100.00;97384.31;1713554;80;28114;-87
2022/08/16 03:35:20;;;;;;;6.70;5.97;;;;;;;18.76;100.00;97389.56;1709120;81;28144;-87
2022/08/16 03:37:47;;;;;;;7.95;5.83;;;;;;;18.76;100.00;97396.19;1721294;80;28040;-86
2022/08/16 03:40:15;;;;;;;7.50;5.70;;;;;;;18.74;100.00;97395.57;1718170;81;28093;-88
2022/08/16 03:42:42;;;;;;;9.68;5.33;;;;;;;18.76;100.00;97399.38;1724619;81;28055;-87
2022/08/16 03:45:13;;;;;;;6.83;4.83;;;;;;;18.68;100.00;97391.50;1729697;81;28127;-88
2022/08/16 03:47:41;;;;;;;7.50;5.35;;;;;;;18.55;100.00;97397.42;1718559;82;28184;-87
2022/08/16 03:50:10;;;;;;;6.85;4.80;;;;;;;18.51;100.00;97400.09;1726979;81;28089;-88
2022/08/16 03:52:36;;;;;;;5.65;4.55;;;;;;;18.56;100.00;97403.05;1719044;81;28171;-88
2022/08/16 03:55:12;;;;;;;6.42;5.00;;;;;;;18.65;100.00;97404.63;1720550;81;28168;-87
2022/08/16 03:57:38;;;;;;;7.00;5.47;;;;;;;18.72;100.00;97410.00;1722774;80;28213;-88
2022/08/16 04:00:12;;;;;;;7.05;4.97;;;;;;;18.73;100.00;97409.82;1719501;81;28061;-87
2022/08/16 04:02:40;;;;;;;6.92;5.53;;;;;;;18.73;100.00;97410.32;1721479;81;28095;-87
2022/08/16 04:05:11;;;;;;;7.03;5.33;;;;;;;18.73;100.00;97409.82;1700016;82;28784;-87
2022/08/16 04:07:37;;;;;;;7.90;5.60;;;;;;;18.73;100.00;97406.34;1719291;81;28274;-89
2022/08/16 04:10:06;;;;;;;7.20;5.40;;;;;;;18.73;100.00;97413.80;1719534;82;28224;-87
2022/08/16 04:12:40;;;;;;;7.47;4.58;;;;;;;18.75;100.00;97406.50;1716491;82;28180;-86
2022/08/16 04:15:11;;;;;;;6.62;5.17;;;;;;;18.78;100.00;97412.74;1729032;81;28114;-86
2022/08/16 04:17:38;;;;;;;6.10;4.55;;;;;;;18.79;100.00;97413.07;1722614;81;28063;-86
2022/08/16 04:20:12;;;;;;;7.47;4.87;;;;;;;18.71;100.00;97417.66;1723956;81;28507;-86
2022/08/16 04:22:38;;;;;;;6.35;4.58;;;;;;;18.59;100.00;97426.55;1729470;81;28094;-88
2022/08/16 04:25:05;;;;;;;6.40;4.70;;;;;;;18.45;100.00;97425.16;1720918;81;28183;-87
2022/08/16 04:27:34;;;;;;;5.67;4.45;;;;;;;18.34;100.00;97427.25;1731194;80;28068;-87
2022/08/16 04:30:05;;;;;;;7.15;4.30;;;;;;;18.31;100.00;97425.48;1723123;82;28062;-86
2022/08/16 04:32:32;;;;;;;7.22;4.35;;;;;;;18.26;100.00;97425.20;1735243;81;28035;-88
2022/08/16 04:35:00;;;;;;;8.00;4.28;;;;;;;18.23;100.00;97434.81;1712341;81;28102;-88
2022/08/16 04:37:31;;;;;;;6.08;3.95;;;;;;;18.17;100.00;97432.37;1727759;82;28102;-88
2022/08/16 04:39:57;;;;;;;7.75;3.92;;;;;;;18.16;100.00;97440.52;1715469;80;28114;-88
2022/08/16 04:42:29;;;;;;;6.05;3.77;;;;;;;18.21;100.00;97438.16;1731832;81;28075;-86
2022/08/16 04:44:56;;;;;;;4.75;4.10;;;;;;;18.29;100.00;97442.87;1721566;81;43037;-86
2022/08/16 04:47:25;;;;;;;5.08;4.28;;;;;;;18.37;100.00;97444.12;1723026;80;28266;-87
2022/08/16 04:49:51;;;;;;;4.78;3.90;;;;;;;18.55;100.00;97456.22;1722185;81;28003;-87
2022/08/16 04:52:18;;;;;;;4.95;4.35;;;;;;;18.77;100.00;97454.83;1729329;81;28249;-87
2022/08/16 04:54:44;;;;;;;5.15;4.05;;;;;;;18.97;100.00;97459.10;1728398;81;28075;-87
2022/08/16 04:57:10;;;;;;;5.53;4.35;;;;;;;19.11;100.00;97460.08;1725889;81;28159;-86
2022/08/16 04:59:37;;;;;;;5.10;4.33;;;;;;;19.21;100.00;97456.64;1722339;81;28105;-86
2022/08/16 05:02:06;;;;;;;6.42;4.30;;;;;;;19.33;100.00;97456.99;1713070;81;28130;-86
2022/08/16 05:04:32;;;;;;;6.47;5.35;;;;;;;19.39;100.00;97453.09;1730886;81;43092;-87
2022/08/16 05:06:59;;;;;;;5.90;4.72;;;;;;;19.46;100.00;97449.23;1729478;81;28232;-88
2022/08/16 05:09:25;;;;;;;6.97;4.50;;;;;;;19.51;100.00;97451.64;1725132;81;28144;-88
2022/08/16 05:11:51;;;;;;;5.25;4.35;;;;;;;19.57;100.00;97452.73;1717345;81;28259;-86
2022/08/16 05:14:17;;;;;;;7.22;4.85;;;;;;;19.64;100.00;97453.59;1723088;81;43028;-86
2022/08/16 05:16:43;;;;;;;6.62;4.70;;;;;;;19.70;100.00;97453.35;1715741;81;28070;-88
2022/08/16 05:19:11;;;;;;;6.92;5.45;;;;;;;19.75;100.00;97461.57;1698086;82;28075;-89
2022/08/16 05:21:37;;;;;;;7.62;4.62;;;;;;;19.80;100.00;97467.96;1712508;82;28179;-88
2022/08/16 05:24:07;;;;;;;7.20;5.15;;;;;;;19.82;100.00;97467.28;1699185;82;28250;-87
2022/08/16 05:26:36;;;;;;;7.22;5.42;;;;;;;19.83;100.00;97475.56;1724914;82;28130;-89
2022/08/16 05:29:06;;;;;;;7.83;5.58;;;;;;;19.82;100.00;97475.24;1709767;80;28248;-87
2022/08/16 05:31:31;;;;;;;11.03;6.65;;;;;;;19.83;100.00;97474.74;1717013;81;28141;-88
2022/08/16 05:34:02;;;;;;;8.33;6.28;;;;;;;19.84;100.00;97477.22;1717985;81;28121;-86
2022/08/16 05:36:29;;;;;;;8.83;6.22;;;;;;;19.92;100.00;97486.37;1718229;82;28138;-86
2022/08/16 05:38:55;;;;;;;8.93;5.80;;;;;;;19.98;100.00;97492.77;1724333;81;28157;-87
2022/08/16 05:41:22;;;;;;;10.15;6.20;;;;;;;20.01;100.00;97494.56;1703028;82;28263;-85
2022/08/16 05:43:50;;;;;;;9.68;6.47;;;;;;;20.08;100.00;97499.09;1720830;81;28119;-86
2022/08/16 05:46:18;;;;;;;10.20;6.20;;;;;;;20.11;100.00;97494.23;1728094;81;28122;-86
2022/08/16 05:48:45;;;;;;;12.30;6.97;;;;;;;20.18;100.00;97494.30;1717525;81;28074;-86
2022/08/16 05:51:12;;;;;;;10.55;6.92;;;;;;;20.24;100.00;97489.03;1712698;81;28088;-86
2022/08/16 05:53:38;;;;;;;10.53;6.17;;;;;;;20.29;100.00;97493.26;1720233;81;28109;-87
2022/08/16 05:56:05;;;;;;;10.93;6.80;;;;;;;20.37;100.00;97491.84;1720220;82;28236;-87
2022/08/16 05:58:31;;;;;;;10.15;6.60;;;;;;;20.44;100.00;97494.06;1721860;82;28090;-87
2022/08/16 06:00:57;;;;;;;8.83;6.55;;;;;;;20.50;100.00;97489.81;1728551;81;28126;-87
2022/08/16 06:03:23;;;;;;;11.57;6.75;;;;;;;20.60;100.00;97496.11;1725988;81;28116;-87
2022/08/16 06:05:49;;;;;;;10.50;6.08;;;;;;;20.68;100.00;97490.64;1732124;81;28102;-88
2022/08/16 06:08:15;;;;;;;9.10;5.92;;;;;;;20.73;100.00;97491.70;1731314;82;43128;-85
2022/08/16 06:10:41;;;;;;;11.00;6.50;;;;;;;20.81;100.00;97493.41;1711428;81;28188;-86
2022/08/16 06:13:07;;;;;;;11.70;6.22;;;;;;;20.87;100.00;97492.13;1714399;82;28080;-87
2022/08/16 06:15:34;;;;;;;9.23;6.03;;;;;;;20.93;100.00;97488.36;1723933;81;28102;-86
2022/08/16 06:18:00;;;;;;;13.58;6.40;;;;;;;20.98;100.00;97490.75;1720828;80;28232;-87
2022/08/16 06:20:37;;;;;;;8.33;5.62;;;;;;;21.07;100.00;97484.75;1699743;81;34646;-87
2022/08/16 06:23:03;;;;;;;10.05;5.75;;;;;;;21.13;100.00;97493.28;1713035;82;28265;-87
2022/08/16 06:25:31;;;;;;;8.30;6.25;;;;;;;21.22;100.00;97504.92;1724538;82;28112;-88
2022/08/16 06:27:57;;;;;;;11.57;6.37;;;;;;;21.31;100.00;97506.94;1702390;81;28237;-86
2022/08/16 06:30:23;;;;;;;9.10;5.45;;;;;;;21.42;100.00;97502.38;1719329;82;28170;-89
2022/08/16 06:32:51;;;;;;;9.15;6.10;;;;;;;21.52;100.00;97508.66;1713003;82;28118;-88
2022/08/16 06:35:20;;;;;;;7.03;5.50;;;;;;;21.63;100.00;97510.75;1720904;81;28130;-88
2022/08/16 06:37:52;;;;;;;9.65;5.53;;;;;;;21.73;100.00;97519.19;1712306;81;28265;-86
2022/08/16 06:40:23;;;;;;;9.18;4.97;;;;;;;21.84;100.00;97518.61;1719608;81;28134;-87
2022/08/16 06:43:07;;;;;;;;;;;;;;;21.96;100.00;97521.55;1735387;82;28159;-88
2022/08/16 06:45:36;;;;;;;6.45;5.22;;;;;;;22.06;100.00;97524.13;1700602;82;20209;-85
2022/08/16 06:48:04;;;;;;;8.05;5.40;;;;;;;22.20;100.00;97535.66;1712222;82;28098;-88
2022/08/16 06:50:32;;;;;;;8.85;5.55;;;;;;;22.30;100.00;97540.08;1725069;81;28217;-88
2022/08/16 06:52:59;;;;;;;9.53;5.35;;;;;;;22.41;100.00;97538.66;1728012;82;28082;-86
2022/08/16 06:55:25;;;;;;;6.70;4.95;;;;;;;22.52;100.00;97538.05;1723094;81;28074;-86
2022/08/16 06:57:53;;;;;;;8.35;4.75;;;;;;;22.59;100.00;97532.70;1719858;82;28018;-85
2022/08/16 07:00:20;;;;;;;7.85;5.47;;;;;;;22.64;100.00;97533.73;1720735;81;28033;-87
2022/08/16 07:02:46;;;;;;;7.58;5.05;;;;;;;22.69;100.00;97535.80;1722440;82;28097;-87
2022/08/16 07:05:15;;;;;;;7.50;5.12;;;;;;;22.71;100.00;97529.73;1725871;81;27990;-87
2022/08/16 07:07:44;;;;;;;7.90;5.00;;;;;;;22.72;100.00;97529.56;1712472;82;28180;-88
2022/08/16 07:10:11;;;;;;;7.67;5.08;;;;;;;22.80;100.00;97532.55;1724932;82;28066;-86
2022/08/16 07:12:37;;;;;;;6.70;4.80;;;;;;;22.86;100.00;97533.86;1726227;81;28027;-86
2022/08/16 07:15:05;;;;;;;6.65;5.47;;;;;;;22.90;100.00;97532.44;1736124;81;28324;-87
2022/08/16 07:17:31;;;;;;;7.17;5.72;;;;;;;22.96;100.00;97536.64;1729082;80;28209;-90
2022/08/16 07:19:58;;;;;;;7.75;4.95;;;;;;;22.97;100.00;97536.92;1731072;80;28117;-89
2022/08/16 07:22:29;;;;;;;8.60;5.60;;;;;;;23.02;100.00;97540.61;1730899;80;28176;-88
2022/08/16 07:24:55;;;;;;;7.12;5.50;;;;;;;23.10;100.00;97542.25;1714391;81;28201;-86
2022/08/16 07:27:22;;;;;;;6.90;5.75;;;;;;;23.11;100.00;97542.05;1726392;80;28074;-88
2022/08/16 07:29:53;;;;;;;8.58;6.25;;;;;;;23.15;100.00;97543.78;1698554;82;28066;-87
2022/08/16 07:32:20;;;;;;;;;;;;;;;23.22;100.00;97535.25;1720100;80;28061;-87
2022/08/16 07:34:46;;;;;;;6.10;5.25;;;;;;;23.28;100.00;97535.25;1723492;81;20303;-87
2022/08/16 07:37:13;;;;;;;6.15;4.70;;;;;;;23.31;100.00;97531.31;1730242;80;28081;-87
2022/08/16 07:39:42;;;;;;;6.30;5.03;;;;;;;23.35;100.00;97534.69;1716494;81;28217;-87
2022/08/16 07:42:09;;;;;;;7.05;5.25;;;;;;;23.43;100.00;97531.50;1717678;81;28124;-87
2022/08/16 07:44:37;;;;;;;8.00;5.25;;;;;;;23.50;100.00;97529.16;1716127;81;28227;-88
2022/08/16 07:47:04;;;;;;;7.78;5.42;;;;;;;23.56;100.00;97526.16;1709688;82;28010;-89
2022/08/16 07:49:30;;;;;;;6.15;5.15;;;;;;;23.60;100.00;97526.85;1712200;82;28171;-89
2022/08/16 07:52:04;;;;;;;7.05;5.60;;;;;;;23.67;100.00;97536.18;1719574;81;28745;-88
2022/08/16 07:54:30;;;;;;;6.00;5.03;;;;;;;23.68;100.00;97534.61;1727001;80;28069;-89
2022/08/16 07:56:56;;;;;;;6.62;5.17;;;;;;;23.71;100.00;97528.86;1715031;81;28109;-89
2022/08/16 07:59:23;;;;;;;5.92;5.22;;;;;;;23.81;100.00;97534.26;1721994;80;28050;-89
2022/08/16 08:01:51;;;;;;;7.33;5.95;;;;;;;23.87;100.00;97530.73;1721728;81;28268;-89
2022/08/16 08:04:19;;;;;;;7.03;5.58;;;;;;;23.93;100.00;97540.06;1706740;81;28147;-89
2022/08/16 08:06:45;;;;;;;6.40;5.45;;;;;;;24.00;100.00;97536.03;1714841;82;28047;-89
2022/08/16 08:09:14;;;;;;;7.62;5.35;;;;;;;24.07;100.00;97535.45;1725772;81;28256;-87
2022/08/16 08:11:41;;;;;;;7.62;5.87;;;;;;;24.13;100.00;97530.59;1725834;82;28023;-87
2022/08/16 08:14:07;;;;;;;7.33;5.42;;;;;;;24.22;100.00;97524.52;1721101;81;28249;-88
2022/08/16 08:16:33;;;;;;;8.08;6.30;;;;;;;24.31;100.00;97526.71;1717787;82;28093;-88
2022/08/16 08:19:01;;;;;;;8.48;6.17;;;;;;;24.37;100.00;97532.53;1726511;81;28047;-87
2022/08/16 08:21:29;;;;;;;6.95;6.20;;;;;;;24.48;100.00;97537.70;1727643;82;27991;-87
2022/08/16 08:23:56;;;;;;;7.25;5.83;;;;;;;24.57;100.00;97539.06;1721304;80;28117;-86
2022/08/16 08:26:27;;;;;;;9.25;6.10;;;;;;;24.60;100.00;97535.42;1715919;80;28127;-86
2022/08/16 08:28:54;;;;;;;6.87;4.07;;;;;;;24.64;100.00;97541.70;1693837;81;28201;-87
2022/08/16 08:31:26;;;;;;;7.00;5.50;;;;;;;24.63;100.00;97538.20;1720411;82;28098;-88
2022/08/16 08:33:55;;;;;;;9.05;5.75;;;;;;;24.58;100.00;97534.84;1735813;81;28251;-87
2022/08/16 08:36:28;;;;;;;6.83;4.80;;;;;;;24.63;100.00;97540.88;1730739;81;28096;-86
2022/08/16 08:38:54;;;;;;;6.35;4.95;;;;;;;24.68;100.00;97540.22;1712081;82;28141;-86
2022/08/16 08:41:22;;;;;;;6.78;5.03;;;;;;;24.71;100.00;97535.23;1723679;81;28126;-88
2022/08/16 08:43:49;;;;;;;6.55;5.00;;;;;;;24.82;100.00;97531.06;1719673;81;28143;-88
2022/08/16 08:46:15;;;;;;;6.55;4.70;;;;;;;24.91;100.00;97525.75;1725516;81;28070;-89
2022/08/16 08:48:41;;;;;;;8.58;5.72;;;;;;;25.01;100.00;97531.42;1729831;80;28053;-87
2022/08/16 08:51:08;;;;;;;6.35;5.22;;;;;;;25.14;100.00;97535.84;1724582;81;28097;-87
2022/08/16 08:53:36;;;;;;;7.83;5.20;;;;;;;25.18;100.00;97530.33;1717842;81;28180;-87
2022/08/16 08:56:05;;;;;;;7.90;5.62;;;;;;;25.31;100.00;97539.03;1715619;81;28179;-87
2022/08/16 08:58:33;;;;;;;6.10;4.70;;;;;;;25.38;100.00;97537.11;1727026;81;28082;-87
2022/08/16 09:00:59;;;;;;;7.55;5.28;;;;;;;25.51;100.00;97526.77;1719131;81;28082;-88
2022/08/16 09:03:25;;;;;;;8.05;4.83;;;;;;;25.64;100.00;97532.54;1719361;81;28059;-87
2022/08/16 09:05:51;;;;;;;6.05;4.62;;;;;;;25.75;100.00;97535.78;1720834;81;28169;-87
2022/08/16 09:08:22;;;;;;;6.53;5.03;;;;;;;25.84;100.00;97538.47;1722928;81;28105;-89
2022/08/16 09:10:48;;;;;;;7.17;5.12;;;;;;;25.93;100.00;97539.78;1724256;81;28167;-87
2022/08/16 09:13:14;;;;;;;8.40;5.58;;;;;;;26.05;100.00;97539.84;1721065;80;28222;-87
2022/08/16 09:15:40;;;;;;;7.10;5.42;;;;;;;26.19;100.00;97540.77;1723198;81;28048;-87
2022/08/16 09:18:06;;;;;;;7.15;5.10;;;;;;;26.30;100.00;97535.69;1729733;81;28082;-87
2022/08/16 09:20:33;;;;;;;6.17;5.17;;;;;;;26.37;100.00;97535.08;1723438;81;28025;-88
2022/08/16 09:23:01;;;;;;;8.23;5.12;;;;;;;26.43;100.00;97538.19;1730389;80;28121;-87
2022/08/16 09:25:27;;;;;;;7.12;4.87;;;;;;;26.48;100.00;97539.14;1707710;82;28148;-87
2022/08/16 09:27:53;;;;;;;6.95;5.25;;;;;;;26.53;100.00;97533.08;1721965;81;28090;-87
2022/08/16 09:30:19;;;;;;;6.20;5.10;;;;;;;26.53;100.00;97538.44;1723896;80;28175;-87
2022/08/16 09:32:46;;;;;;;7.83;4.75;;;;;;;26.57;100.00;97543.11;1722236;81;28007;-87
2022/08/16 09:35:14;;;;;;;6.90;4.80;;;;;;;26.67;100.00;97541.75;1714426;82;28082;-88
2022/08/16 09:37:45;;;;;;;5.78;4.83;;;;;;;26.64;100.00;97544.36;1728710;81;28156;-87
2022/08/16 09:40:13;;;;;;;6.67;5.00;;;;;;;26.70;100.00;97546.64;1704873;82;28114;-87
2022/08/16 09:42:54;;;;;;;8.23;5.10;;;;;;;26.74;100.00;97547.81;1725410;81;28025;-87
2022/08/16 09:45:20;;;;;;;;;;;;;;;26.79;100.00;97538.53;1725641;81;28097;-87
2022/08/16 09:47:51;;;;;;;8.58;4.90;;;;;;;26.90;100.00;97537.77;1725220;81;20262;-87
2022/08/16 09:50:14;;;;;;;8.23;5.05;;;;;;;26.86;100.00;97539.25;1720414;81;28097;-87
2022/08/16 09:52:40;;;;;;;8.58;5.10;;;;;;;26.90;100.00;97543.95;1724403;80;28083;-87
2022/08/16 09:55:09;;;;;;;11.28;5.37;;;;;;;26.95;100.00;97544.07;1712238;81;28047;-87
2022/08/16 09:57:36;;;;;;;8.28;5.08;;;;;;;26.98;100.00;97544.14;1716305;81;28022;-89
2022/08/16 10:00:09;;;;;;;7.20;5.17;;;;;;;27.08;100.00;97547.59;1723279;82;28005;-86
2022/08/16 10:02:36;;;;;;;6.72;4.95;;;;;;;27.22;100.00;97550.34;1722006;81;28125;-86
2022/08/16 10:05:03;;;;;;;7.62;4.92;;;;;;;27.31;100.00;97541.69;1730533;82;28031;-89
2022/08/16 10:07:31;;;;;;;7.17;4.65;;;;;;;27.32;100.00;97539.82;1712627;81;28086;-87
2022/08/16 10:09:58;;;;;;;7.80;5.03;;;;;;;27.29;100.00;97541.62;1717495;81;28094;-87
2022/08/16 10:15:21;;;;;;;6.25;4.62;;;;;;;27.19;100.00;97549.45;1710182;82;28123;-87
2022/08/16 10:17:51;;;;;;;10.32;5.53;;;;;;;27.16;100.00;97547.25;1729774;81;28118;-87
2022/08/16 10:20:17;;;;;;;9.55;5.60;;;;;;;27.10;100.00;97543.62;1728756;80;28159;-86
2022/08/16 10:22:43;;;;;;;7.97;5.22;;;;;;;27.20;100.00;97545.20;1713050;81;28077;-88
2022/08/16 10:25:09;;;;;;;8.25;5.80;;;;;;;27.28;100.00;97550.20;1725991;80;28266;-86
2022/08/16 10:27:36;;;;;;;9.03;5.78;;;;;;;27.31;100.00;97540.87;1717450;82;28086;-86
2022/08/16 10:30:05;;;;;;;7.92;6.05;;;;;;;27.42;100.00;97538.17;1716885;81;28161;-89
2022/08/16 10:32:33;;;;;;;7.50;5.80;;;;;;;27.48;100.00;97541.78;1716755;81;28090;-86
2022/08/16 10:35:02;;;;;;;11.35;6.00;;;;;;;27.52;100.00;97541.63;1718999;82;28089;-86
2022/08/16 10:37:28;;;;;;;9.35;5.80;;;;;;;27.58;100.00;97543.90;1722392;80;28259;-88
2022/08/16 10:39:55;;;;;;;9.13;5.87;;;;;;;27.64;100.00;97542.95;1730603;81;28221;-86
2022/08/16 10:42:23;;;;;;;6.72;5.28;;;;;;;27.70;100.00;97540.14;1720331;81;28153;-88
2022/08/16 10:44:50;;;;;;;7.95;5.53;;;;;;;27.79;100.00;97542.73;1725539;80;28193;-88
2022/08/16 10:47:17;;;;;;;8.03;5.30;;;;;;;27.80;100.00;97544.38;1728281;82;28373;-87
2022/08/16 10:49:47;;;;;;;8.33;5.55;;;;;;;27.68;100.00;97551.64;1720244;81;28248;-85
2022/08/16 10:52:13;;;;;;;6.70;5.20;;;;;;;27.58;100.00;97544.72;1720255;82;28027;-88
2022/08/16 10:54:40;;;;;;;8.55;5.78;;;;;;;27.55;100.00;97549.20;1727871;81;28061;-88
2022/08/16 10:57:08;;;;;;;7.85;6.15;;;;;;;27.54;100.00;97538.71;1725166;81;28109;-86
2022/08/16 10:59:34;;;;;;;6.37;5.60;;;;;;;27.53;100.00;97540.58;1720294;81;28041;-88
2022/08/16 11:02:00;;;;;;;6.70;5.37;;;;;;;27.54;100.00;97536.84;1718494;82;28073;-89
2022/08/16 11:04:26;;;;;;;7.17;5.83;;;;;;;27.65;100.00;97529.28;1713332;82;28121;-86
2022/08/16 11:06:53;;;;;;;9.13;5.58;;;;;;;27.73;100.00;97533.45;1722742;82;28109;-86
2022/08/16 11:09:19;;;;;;;7.20;5.47;;;;;;;27.81;100.00;97528.53;1711444;81;28073;-87
2022/08/16 11:11:45;;;;;;;8.05;5.80;;;;;;;27.94;100.00;97526.59;1725356;81;28353;-86
2022/08/16 11:14:12;;;;;;;6.03;5.42;;;;;;;28.07;100.00;97525.80;1729112;81;28065;-87
2022/08/16 11:16:42;;;;;;;8.28;5.60;;;;;;;28.21;100.00;97528.50;1723765;81;28024;-86
2022/08/16 11:19:11;;;;;;;6.62;5.42;;;;;;;28.34;100.00;97519.84;1734803;81;28094;-85
2022/08/16 11:21:39;;;;;;;5.30;4.78;;;;;;;28.44;100.00;97518.15;1712086;81;28162;-88
2022/08/16 11:24:05;;;;;;;5.45;4.83;;;;;;;28.48;100.00;97519.81;1724773;81;28111;-89
2022/08/16 11:26:32;;;;;;;5.60;5.00;;;;;;;28.39;100.00;97526.14;1722798;82;28075;-88
2022/08/16 11:29:00;;;;;;;6.50;4.62;;;;;;;28.25;100.00;97517.56;1727604;82;28178;-86